NCAR-RAP Real-Time Weather Data

Output produced by METARs form (20 February 2019  17:17 UTC)
found at http://weather.rap.ucar.edu/surface/
 
ROIG 201100Z 21007KT 9999 FEW013 SCT080 24/22 Q1019
ROIG 201000Z 21010KT 9999 FEW010 BKN090 24/22 Q1019
ROIG 200900Z 22011KT 9999 FEW010 BKN070 25/23 Q1018
ROIG 200800Z 22014KT 9999 FEW013 BKN070 26/22 Q1018
ROIG 200700Z 21013KT 9999 FEW013 27/23 Q1018
ROIG 200600Z 20015KT 9999 FEW012 27/23 Q1018
ROIG 200500Z 21017KT 9999 FEW015 27/22 Q1019
ROIG 200400Z 21016KT 9999 FEW012 27/22 Q1020
ROIG 200300Z 20014KT 9999 FEW009 BKN070 27/23 Q1020
ROIG 200200Z 19014KT 9999 FEW009 SCT070 27/23 Q1021
ROIG 200100Z 19013KT 9999 SCT008 BKN060 26/23 Q1021
ROIG 200000Z 20012KT 9999 FEW009 SCT090 26/23 Q1020
ROIG 192300Z 19007KT 9999 FEW009 BKN090 24/23 Q1019
ROIG 192200Z 18006KT 9999 FEW009 BKN015 BKN090 23/23 Q1019
ROIG 192100Z 20004KT 9999 FEW007 SCT100 23/23 Q1018
ROIG 191100Z 22006KT 9999 FEW015 24/23 Q1019
ROIG 191000Z 23005KT 9999 FEW012 24/23 Q1018
ROIG 190900Z 22014KT 9999 FEW012 25/23 Q1017
ROIG 190800Z 22014KT 9999 FEW017 26/23 Q1017
ROIG 190700Z 22014KT 9999 FEW015 27/23 Q1017
ROIG 190600Z 21014KT 9999 FEW013 28/23 Q1017
ROIG 190500Z 22015KT 9999 FEW012 SCT090 28/24 Q1017
ROIG 190400Z 21016KT 9999 FEW016 28/23 Q1018
ROIG 190300Z 21016KT 9999 FEW016 27/22 Q1018
ROIG 190200Z 21014KT 9999 FEW017 27/22 Q1019
ROIG 190100Z 21014KT 9999 FEW016 BKN030 26/23 Q1019
ROIG 190000Z 20011KT 9999 SCT016 BKN035 25/23 Q1018
ROIG 182300Z 21012KT 9999 FEW016 BKN035 24/22 Q1018
ROIG 182200Z 20014KT 9999 FEW016 BKN044 24/22 Q1017
ROIG 182100Z 20017KT 9999 FEW012 BKN020 24/22 Q1016
ROIG 181100Z 18013KT 9999 FEW022 24/21 Q1016
ROIG 181000Z 18012KT 9999 FEW022 24/21 Q1015
ROIG 180900Z 18012KT 9999 FEW022 BKN/// 24/21 Q1015
ROIG 180800Z 18013KT 9999 FEW025 BKN/// 25/21 Q1015
ROIG 180700Z 18015KT 9999 FEW023 SCT070 25/21 Q1015
ROIG 180600Z 17011KT 150V220 9999 VCSH FEW014 BKN/// 26/21 Q1015